Time;durP1;ratioP1;P1;durP2;ratioP2;P2;SDS_P1;SDS_P2;PMS_P1;PMS_P2;Temp;Humidity;BMP_temperature;BMP_pressure;BME280_temperature;BME280_humidity;BME280_pressure;Samples;Min_cycle;Max_cycle;Signal;HPM_P1;HPM_P2
2022/10/22 00:00:25;;;;;;;15.13;5.40;;;15.30;99.90;;;;;;5068925;28;20032;-73
2022/10/22 00:02:51;;;;;;;8.57;4.78;;;15.30;99.90;;;;;;5053168;28;20025;-74
2022/10/22 00:05:16;;;;;;;9.35;5.05;;;15.20;99.90;;;;;;5069358;28;20535;-73
2022/10/22 00:07:42;;;;;;;8.07;4.68;;;15.20;99.90;;;;;;5053329;28;20036;-74
2022/10/22 00:10:09;;;;;;;9.52;4.05;;;15.20;99.90;;;;;;5052165;28;20348;-74
2022/10/22 00:12:34;;;;;;;8.10;4.55;;;15.30;99.90;;;;;;5052757;28;20055;-72
2022/10/22 00:15:00;;;;;;;6.65;4.57;;;15.30;99.90;;;;;;5053239;28;20033;-72
2022/10/22 00:17:26;;;;;;;6.75;4.15;;;15.30;99.90;;;;;;5052255;28;20467;-72
2022/10/22 00:19:52;;;;;;;8.10;4.95;;;15.40;99.90;;;;;;5051562;28;20138;-72
2022/10/22 00:22:17;;;;;;;8.45;4.72;;;15.30;99.90;;;;;;5052948;28;20031;-73
2022/10/22 00:24:43;;;;;;;8.32;4.75;;;15.30;99.90;;;;;;5052794;28;20271;-72
2022/10/22 00:27:11;;;;;;;5.93;4.50;;;15.30;99.90;;;;;;5053021;28;20029;-74
2022/10/22 00:29:36;;;;;;;8.32;5.10;;;15.30;99.90;;;;;;5052690;28;20573;-73
2022/10/22 00:32:03;;;;;;;5.57;3.92;;;15.30;99.90;;;;;;5053126;28;20116;-73
2022/10/22 00:34:29;;;;;;;6.95;4.80;;;15.30;99.90;;;;;;5068289;28;20399;-73
2022/10/22 00:36:55;;;;;;;7.45;4.32;;;15.40;99.90;;;;;;5052486;28;20025;-74
2022/10/22 00:39:23;;;;;;;8.27;4.45;;;15.30;99.90;;;;;;5052675;28;20029;-74
2022/10/22 00:41:51;;;;;;;8.27;4.38;;;15.30;99.90;;;;;;5052292;28;20210;-74
2022/10/22 00:44:53;;;;;;;11.40;4.35;;;15.40;99.90;;;;;;5053064;28;20036;-74
2022/10/22 00:47:21;;;;;;;7.18;4.60;;;15.40;99.90;;;;;;5052535;28;20069;-73
2022/10/22 00:49:47;;;;;;;6.60;4.13;;;15.40;99.90;;;;;;5052286;28;20329;-74
2022/10/22 00:52:13;;;;;;;8.30;4.35;;;15.40;99.90;;;;;;5052348;28;20036;-74
2022/10/22 00:54:40;;;;;;;8.77;4.70;;;15.30;99.90;;;;;;5052378;28;20473;-73
2022/10/22 00:57:06;;;;;;;6.07;4.35;;;15.30;99.90;;;;;;5052340;28;20032;-73
2022/10/22 00:59:32;;;;;;;8.73;4.50;;;15.30;99.90;;;;;;5052227;28;20021;-74
2022/10/22 01:01:58;;;;;;;5.40;3.90;;;15.30;99.90;;;;;;5068237;28;20029;-73
2022/10/22 01:04:24;;;;;;;4.93;3.78;;;15.30;99.90;;;;;;5051965;28;20044;-73
2022/10/22 01:06:50;;;;;;;6.88;4.22;;;15.30;99.90;;;;;;5052069;28;20021;-73
2022/10/22 01:09:39;;;;;;;7.40;4.28;;;15.30;99.90;;;;;;5052039;28;20127;-73
2022/10/22 01:12:25;;;;;;;8.23;3.92;;;15.30;99.90;;;;;;5051899;28;20174;-73
2022/10/22 01:15:23;;;;;;;7.00;4.05;;;15.30;99.90;;;;;;5051850;28;20412;-73
2022/10/22 01:17:58;;;;;;;9.32;4.20;;;15.20;99.90;;;;;;5051709;28;20044;-73
2022/10/22 01:20:57;;;;;;;5.65;3.85;;;15.20;99.90;;;;;;5052339;28;20029;-73
2022/10/22 01:23:48;;;;;;;6.55;4.20;;;15.20;99.90;;;;;;5051581;28;20435;-72
2022/10/22 01:26:38;;;;;;;7.95;4.30;;;15.20;99.90;;;;;;5052116;28;20532;-73
2022/10/22 01:29:26;;;;;;;6.32;3.97;;;15.20;99.90;;;;;;5051528;28;20029;-73
2022/10/22 01:32:06;;;;;;;5.68;4.47;;;15.20;99.90;;;;;;5051554;28;20098;-72
2022/10/22 01:34:33;;;;;;;8.07;4.55;;;15.30;99.90;;;;;;5051668;28;20493;-74
2022/10/22 01:37:00;;;;;;;12.18;4.25;;;15.20;99.90;;;;;;5069347;28;20036;-72
2022/10/22 01:39:28;;;;;;;6.65;4.18;;;15.20;99.90;;;;;;5071547;28;20028;-74
2022/10/22 01:41:55;;;;;;;5.53;4.10;;;15.20;99.90;;;;;;5071569;28;20047;-73
2022/10/22 01:44:25;;;;;;;6.53;4.07;;;15.20;99.90;;;;;;5071845;28;20111;-72
2022/10/22 01:47:08;;;;;;;6.82;4.22;;;15.20;99.90;;;;;;5071715;28;20464;-72
2022/10/22 01:49:55;;;;;;;8.70;5.57;;;15.20;99.90;;;;;;5071588;28;20097;-73
2022/10/22 01:52:26;;;;;;;5.00;3.42;;;15.20;99.90;;;;;;5071264;28;20110;-73
2022/10/22 01:55:10;;;;;;;6.10;4.50;;;15.20;99.90;;;;;;5071269;28;20029;-73
2022/10/22 01:57:52;;;;;;;10.23;4.72;;;15.20;99.90;;;;;;5071309;28;20032;-72
2022/10/22 02:00:19;;;;;;;13.10;4.22;;;15.20;99.90;;;;;;5071491;28;20025;-72
2022/10/22 02:02:57;;;;;;;6.85;4.32;;;15.20;99.90;;;;;;5071544;28;20416;-73
2022/10/22 02:05:42;;;;;;;6.07;3.88;;;15.20;99.90;;;;;;5071446;28;20494;-71
2022/10/22 02:08:21;;;;;;;5.72;4.13;;;15.20;99.90;;;;;;5071156;28;20036;-71
2022/10/22 02:10:48;;;;;;;6.80;4.75;;;15.20;99.90;;;;;;5071438;28;20056;-72
2022/10/22 02:13:48;;;;;;;8.65;4.47;;;15.20;99.90;;;;;;5070608;28;20055;-72
2022/10/22 02:16:21;;;;;;;9.55;4.40;;;15.20;99.90;;;;;;5069684;28;20412;-72
2022/10/22 02:18:49;;;;;;;8.95;4.65;;;15.20;99.90;;;;;;5070745;28;20029;-72
2022/10/22 02:21:15;;;;;;;7.57;4.25;;;15.20;99.90;;;;;;5070684;28;20052;-72
2022/10/22 02:23:41;;;;;;;8.50;4.43;;;15.10;99.90;;;;;;5070595;28;20477;-74
2022/10/22 02:26:15;;;;;;;9.18;4.60;;;15.10;99.90;;;;;;5071350;28;20176;-73
2022/10/22 02:28:56;;;;;;;9.32;4.25;;;15.10;99.90;;;;;;5070600;28;20024;-72
2022/10/22 02:31:26;;;;;;;6.38;4.95;;;15.10;99.90;;;;;;5070601;28;20035;-73
2022/10/22 02:33:55;;;;;;;9.45;4.47;;;15.10;99.90;;;;;;5070877;28;20043;-74
2022/10/22 02:36:22;;;;;;;6.57;4.15;;;15.10;99.90;;;;;;5070773;28;20408;-72
2022/10/22 02:38:50;;;;;;;9.20;4.68;;;15.10;99.90;;;;;;5070287;28;20143;-71
2022/10/22 02:41:16;;;;;;;6.03;4.63;;;15.10;99.90;;;;;;5070815;28;20020;-72
2022/10/22 02:43:48;;;;;;;6.57;3.88;;;15.10;99.90;;;;;;5070690;28;20032;-73
2022/10/22 02:46:14;;;;;;;7.93;4.20;;;15.10;99.90;;;;;;5070833;28;20024;-72
2022/10/22 02:48:40;;;;;;;8.07;4.20;;;15.10;99.90;;;;;;5070611;28;20039;-72
2022/10/22 02:51:06;;;;;;;8.82;4.30;;;15.10;99.90;;;;;;5070527;28;20409;-73
2022/10/22 02:53:31;;;;;;;8.40;4.30;;;15.10;99.90;;;;;;5070436;28;20454;-72
2022/10/22 02:55:58;;;;;;;6.18;4.35;;;15.10;99.90;;;;;;5070836;28;20153;-73
2022/10/22 02:58:24;;;;;;;8.50;4.25;;;15.10;99.90;;;;;;5070342;28;20025;-73
2022/10/22 03:00:50;;;;;;;9.80;3.78;;;15.10;99.90;;;;;;5070427;28;20440;-73
2022/10/22 03:03:16;;;;;;;7.18;4.43;;;15.10;99.90;;;;;;5070412;28;20033;-73
2022/10/22 03:05:41;;;;;;;9.05;4.57;;;15.10;99.90;;;;;;5070394;28;20027;-73
2022/10/22 03:08:07;;;;;;;9.23;4.55;;;15.10;99.90;;;;;;5070918;28;20040;-74
2022/10/22 03:10:33;;;;;;;6.85;4.00;;;15.10;99.90;;;;;;5070406;28;20109;-74
2022/10/22 03:12:58;;;;;;;5.50;3.90;;;15.00;99.90;;;;;;5070088;28;20497;-72
2022/10/22 03:15:24;;;;;;;5.55;4.05;;;15.10;99.90;;;;;;5070200;28;20131;-73
2022/10/22 03:17:49;;;;;;;11.98;5.10;;;15.10;99.90;;;;;;5070495;28;20353;-73
2022/10/22 03:20:15;;;;;;;5.93;3.95;;;15.00;99.90;;;;;;5071212;28;20520;-74
2022/10/22 03:22:42;;;;;;;6.32;3.92;;;15.10;99.90;;;;;;5070442;28;20028;-73
2022/10/22 03:25:13;;;;;;;8.80;4.68;;;15.10;99.90;;;;;;5070455;28;20071;-74
2022/10/22 03:27:40;;;;;;;12.20;4.15;;;15.10;99.90;;;;;;5070449;28;20041;-74
2022/10/22 03:30:07;;;;;;;5.38;3.80;;;15.10;99.90;;;;;;5070248;28;20025;-74
2022/10/22 03:32:32;;;;;;;6.28;3.95;;;15.10;99.90;;;;;;5070368;28;20082;-74
2022/10/22 03:34:58;;;;;;;5.68;3.63;;;15.10;99.90;;;;;;5070895;28;20028;-72
2022/10/22 03:37:25;;;;;;;4.63;3.67;;;15.10;99.90;;;;;;5070430;28;20036;-74
2022/10/22 03:39:53;;;;;;;9.27;4.22;;;15.00;99.90;;;;;;5070330;28;20028;-73
2022/10/22 03:42:19;;;;;;;6.05;3.78;;;15.00;99.90;;;;;;5070302;28;20058;-74
2022/10/22 03:44:44;;;;;;;6.93;4.25;;;15.00;99.90;;;;;;5070204;28;20210;-74
2022/10/22 03:47:11;;;;;;;8.85;4.35;;;15.00;99.90;;;;;;5070968;28;20436;-72
2022/10/22 03:49:36;;;;;;;8.63;4.78;;;15.00;99.90;;;;;;5070534;28;20032;-74
2022/10/22 03:52:11;;;;;;;5.50;3.85;;;15.00;99.90;;;;;;5071709;28;20033;-73
2022/10/22 03:54:37;;;;;;;12.38;4.25;;;15.00;99.90;;;;;;5073530;28;20033;-73
2022/10/22 03:57:04;;;;;;;12.88;4.20;;;15.00;99.90;;;;;;5073461;28;20021;-72
2022/10/22 03:59:37;;;;;;;7.35;3.47;;;15.00;99.90;;;;;;5073512;28;20021;-72
2022/10/22 04:02:03;;;;;;;7.28;3.70;;;15.00;99.90;;;;;;5073690;28;20047;-74
2022/10/22 04:04:29;;;;;;;5.32;3.60;;;15.00;99.90;;;;;;5073370;28;20465;-73
2022/10/22 04:06:55;;;;;;;8.68;4.13;;;15.00;99.90;;;;;;5073422;28;20036;-73
2022/10/22 04:09:20;;;;;;;7.55;3.60;;;15.00;99.90;;;;;;5073239;28;20020;-73
2022/10/22 04:11:46;;;;;;;13.13;3.85;;;15.00;99.90;;;;;;5073228;28;20442;-73
2022/10/22 04:14:12;;;;;;;6.68;3.90;;;15.00;99.90;;;;;;5073644;28;20505;-73
2022/10/22 04:16:41;;;;;;;6.28;3.72;;;15.00;99.90;;;;;;5073183;28;20043;-73
2022/10/22 04:19:07;;;;;;;8.57;3.95;;;15.00;99.90;;;;;;5073148;28;20455;-73
2022/10/22 04:21:33;;;;;;;10.30;4.22;;;15.00;99.90;;;;;;5073184;28;20111;-74
2022/10/22 04:24:00;;;;;;;7.00;3.63;;;15.00;99.90;;;;;;5072900;28;20040;-73
2022/10/22 04:26:26;;;;;;;6.53;3.65;;;15.00;99.90;;;;;;5073514;28;20108;-73
2022/10/22 04:28:52;;;;;;;5.40;3.78;;;15.00;99.90;;;;;;5073024;28;20124;-74
2022/10/22 04:31:21;;;;;;;11.70;3.95;;;15.00;99.90;;;;;;5071783;28;20037;-72
2022/10/22 04:33:46;;;;;;;;;;;15.00;99.90;;;;;;5073317;28;20040;-75
2022/10/22 04:36:17;;;;;;;9.10;4.63;;;15.00;99.90;;;;;;5072759;28;19916;-72
2022/10/22 04:38:45;;;;;;;5.25;3.83;;;15.00;99.90;;;;;;5071548;28;20021;-73
2022/10/22 04:41:16;;;;;;;6.15;4.13;;;15.00;99.90;;;;;;5073110;28;20100;-72
2022/10/22 04:43:43;;;;;;;9.88;4.00;;;15.00;99.90;;;;;;5072468;28;20047;-72
2022/10/22 04:46:10;;;;;;;9.07;4.30;;;15.00;99.90;;;;;;5072517;28;20036;-72
2022/10/22 04:48:37;;;;;;;5.50;4.07;;;15.00;99.90;;;;;;5072393;28;20032;-71
2022/10/22 04:51:05;;;;;;;9.43;4.20;;;15.00;99.90;;;;;;5072437;28;20454;-74
2022/10/22 04:53:31;;;;;;;;;;;15.10;99.90;;;;;;5073264;28;20078;-74
2022/10/22 04:56:32;;;;;;;4.10;3.28;;;15.10;99.90;;;;;;5072717;28;20301;-71
2022/10/22 04:59:05;;;;;;;7.03;4.07;;;15.10;99.90;;;;;;5069469;28;20044;-72
2022/10/22 05:01:35;;;;;;;10.25;4.00;;;15.10;99.90;;;;;;5072333;28;20032;-73
2022/10/22 05:04:03;;;;;;;8.35;4.40;;;15.10;99.90;;;;;;5071458;28;20033;-74
2022/10/22 05:06:30;;;;;;;12.75;3.63;;;15.10;99.90;;;;;;5072096;28;20040;-74
2022/10/22 05:09:02;;;;;;;10.10;3.90;;;15.10;99.90;;;;;;5071939;28;20028;-73
2022/10/22 05:11:32;;;;;;;10.73;3.97;;;15.10;99.90;;;;;;5071972;28;20028;-68
2022/10/22 05:13:59;;;;;;;6.05;3.88;;;15.10;99.90;;;;;;5072063;28;20385;-71
2022/10/22 05:16:27;;;;;;;9.85;4.20;;;15.10;99.90;;;;;;5070694;28;20028;-72
2022/10/22 05:18:53;;;;;;;6.78;3.60;;;15.10;99.90;;;;;;5071770;28;20120;-72
2022/10/22 05:21:20;;;;;;;6.97;3.97;;;15.00;99.90;;;;;;5071646;28;20570;-73
2022/10/22 05:23:47;;;;;;;8.50;3.55;;;15.00;99.90;;;;;;5071769;28;20029;-73
2022/10/22 05:26:16;;;;;;;7.03;4.22;;;15.00;99.90;;;;;;5072031;28;20045;-72
2022/10/22 05:28:42;;;;;;;4.53;3.83;;;15.00;99.90;;;;;;5070354;28;20029;-73
2022/10/22 05:31:10;;;;;;;10.25;4.00;;;15.00;99.90;;;;;;5071668;28;20052;-73
2022/10/22 05:33:37;;;;;;;8.82;4.70;;;15.00;99.90;;;;;;5071527;28;20059;-73
2022/10/22 05:36:04;;;;;;;6.00;3.92;;;15.00;99.90;;;;;;5071716;28;20032;-74
2022/10/22 05:38:34;;;;;;;6.80;4.20;;;15.00;99.90;;;;;;5071732;28;20016;-71
2022/10/22 05:41:10;;;;;;;6.15;3.90;;;15.00;99.90;;;;;;5072485;28;20096;-73
2022/10/22 05:43:36;;;;;;;7.63;4.25;;;15.00;99.90;;;;;;5071335;28;20029;-73
2022/10/22 05:46:04;;;;;;;8.52;4.13;;;15.00;99.90;;;;;;5071355;28;20336;-73
2022/10/22 05:48:30;;;;;;;12.73;6.97;;;15.00;99.90;;;;;;5071696;28;20111;-74
2022/10/22 05:50:56;;;;;;;12.10;6.75;;;15.00;99.90;;;;;;5071283;28;20119;-74
2022/10/22 05:53:22;;;;;;;10.68;5.63;;;15.00;99.90;;;;;;5071949;28;20029;-74
2022/10/22 05:55:48;;;;;;;14.95;9.88;;;15.00;99.90;;;;;;5071084;28;20128;-75
2022/10/22 05:58:14;;;;;;;12.88;7.75;;;14.90;99.90;;;;;;5071083;28;20108;-74
2022/10/22 06:00:40;;;;;;;14.90;5.20;;;14.90;99.90;;;;;;5069820;28;20111;-74
2022/10/22 06:03:05;;;;;;;8.75;5.10;;;14.90;99.90;;;;;;5070830;28;20191;-73
2022/10/22 06:05:35;;;;;;;8.70;4.75;;;14.90;99.90;;;;;;5071033;28;20040;-72
2022/10/22 06:08:01;;;;;;;7.38;4.75;;;14.90;99.90;;;;;;5071578;28;20036;-73
2022/10/22 06:10:27;;;;;;;12.60;4.97;;;14.90;99.90;;;;;;5071012;28;20085;-73
2022/10/22 06:12:53;;;;;;;7.97;4.90;;;14.90;99.90;;;;;;5069576;28;20033;-73
2022/10/22 06:15:19;;;;;;;20.95;5.30;;;14.90;99.90;;;;;;5070186;28;20173;-74
2022/10/22 06:17:46;;;;;;;5.93;4.40;;;14.90;99.90;;;;;;5071067;28;20035;-74
2022/10/22 06:20:12;;;;;;;7.65;4.75;;;14.90;99.90;;;;;;5071299;28;20377;-72
2022/10/22 06:22:38;;;;;;;11.85;4.90;;;14.90;99.90;;;;;;5070848;28;20370;-73
2022/10/22 06:25:05;;;;;;;10.98;5.03;;;14.80;99.90;;;;;;5070571;28;20040;-73
2022/10/22 06:27:31;;;;;;;8.60;5.85;;;14.90;99.90;;;;;;5070839;28;20127;-73
2022/10/22 06:29:56;;;;;;;7.43;4.40;;;14.80;99.90;;;;;;5070788;28;20111;-73
2022/10/22 06:32:22;;;;;;;10.10;5.05;;;14.90;99.90;;;;;;5071248;28;20025;-73
2022/10/22 06:34:49;;;;;;;6.95;5.22;;;14.90;99.90;;;;;;5070699;28;20052;-73
2022/10/22 06:37:15;;;;;;;11.80;5.43;;;14.90;99.90;;;;;;5070711;28;20106;-74
2022/10/22 06:39:41;;;;;;;6.78;4.72;;;14.90;99.90;;;;;;5070527;28;20024;-72
2022/10/22 06:42:06;;;;;;;16.52;8.23;;;14.90;99.90;;;;;;5070796;28;20032;-74
2022/10/22 06:44:32;;;;;;;13.20;8.60;;;14.90;99.90;;;;;;5069267;28;20078;-73
2022/10/22 06:46:58;;;;;;;19.88;10.55;;;14.90;99.90;;;;;;5070958;28;20402;-74
2022/10/22 06:49:23;;;;;;;16.15;10.93;;;14.90;99.90;;;;;;5070580;28;20471;-74
2022/10/22 06:51:53;;;;;;;16.08;8.27;;;14.90;99.90;;;;;;5069514;28;20033;-73
2022/10/22 06:54:20;;;;;;;8.38;5.60;;;14.90;99.90;;;;;;5070308;28;20059;-74
2022/10/22 06:56:45;;;;;;;10.30;4.68;;;15.00;99.90;;;;;;5069476;28;20025;-74
2022/10/22 06:59:11;;;;;;;9.70;5.13;;;15.00;99.90;;;;;;5069795;28;20078;-73
2022/10/22 07:01:37;;;;;;;8.00;5.28;;;15.00;99.90;;;;;;5070263;28;20028;-75
2022/10/22 07:04:04;;;;;;;8.02;5.32;;;15.00;99.90;;;;;;5070518;28;20119;-75
2022/10/22 07:06:30;;;;;;;8.35;5.03;;;15.00;99.90;;;;;;5069510;28;20044;-75
2022/10/22 07:08:58;;;;;;;15.43;6.05;;;15.10;99.90;;;;;;5070493;28;20032;-75
2022/10/22 07:11:28;;;;;;;11.95;5.45;;;15.10;99.90;;;;;;5070766;28;20016;-77
2022/10/22 07:13:56;;;;;;;8.27;5.07;;;15.10;99.90;;;;;;5070120;28;20529;-75
2022/10/22 07:16:22;;;;;;;8.75;5.80;;;15.10;99.90;;;;;;5069093;28;20480;-75
2022/10/22 07:18:48;;;;;;;13.50;6.00;;;15.10;99.90;;;;;;5070493;28;20033;-74
2022/10/22 07:21:16;;;;;;;13.32;4.75;;;15.10;99.90;;;;;;5070326;28;20029;-75
2022/10/22 07:23:42;;;;;;;;;;;15.10;99.90;;;;;;5070531;28;20028;-76
2022/10/22 07:26:10;;;;;;;8.88;4.93;;;15.10;99.90;;;;;;5072291;28;19916;-75
2022/10/22 07:28:38;;;;;;;7.82;5.45;;;15.10;99.90;;;;;;5074089;28;20423;-77
2022/10/22 07:31:06;;;;;;;9.65;5.40;;;15.20;99.90;;;;;;5072898;28;20175;-78
2022/10/22 07:33:31;;;;;;;11.68;5.32;;;15.20;99.90;;;;;;5072956;28;20040;-77
2022/10/22 07:35:59;;;;;;;10.15;5.45;;;15.30;99.90;;;;;;5073181;28;20032;-78
2022/10/22 07:38:25;;;;;;;5.95;4.88;;;15.30;99.90;;;;;;5073144;28;20036;-76
2022/10/22 07:40:51;;;;;;;9.23;4.65;;;15.30;99.90;;;;;;5072655;28;20437;-75
2022/10/22 07:43:17;;;;;;;6.45;4.68;;;15.30;99.90;;;;;;5073515;28;20112;-77
2022/10/22 07:45:42;;;;;;;10.05;5.20;;;15.30;99.90;;;;;;5073570;28;20086;-78
2022/10/22 07:48:08;;;;;;;6.63;4.78;;;15.30;99.90;;;;;;5073966;28;20048;-74
2022/10/22 07:50:33;;;;;;;10.40;5.28;;;15.30;99.90;;;;;;5073595;28;20166;-75
2022/10/22 07:52:59;;;;;;;14.30;6.88;;;15.40;99.90;;;;;;5073985;28;20032;-77
2022/10/22 07:55:25;;;;;;;7.28;4.80;;;15.40;99.90;;;;;;5073388;28;20021;-77
2022/10/22 07:57:51;;;;;;;12.52;5.40;;;15.50;99.90;;;;;;5073634;28;20107;-77
2022/10/22 08:00:17;;;;;;;8.23;5.10;;;15.50;99.90;;;;;;5073318;28;20028;-78
2022/10/22 08:02:42;;;;;;;11.15;4.95;;;15.50;99.90;;;;;;5073487;28;20029;-73
2022/10/22 08:05:08;;;;;;;8.98;5.25;;;15.60;99.90;;;;;;5073632;28;20033;-76
2022/10/22 08:07:34;;;;;;;8.25;4.95;;;15.60;99.90;;;;;;5073468;28;20196;-77
2022/10/22 08:09:59;;;;;;;8.65;4.80;;;15.70;99.90;;;;;;5073254;28;20040;-76
2022/10/22 08:12:25;;;;;;;9.73;4.65;;;15.70;99.90;;;;;;5072919;28;20045;-75
2022/10/22 08:14:51;;;;;;;11.85;4.70;;;15.80;99.90;;;;;;5073366;28;20025;-74
2022/10/22 08:17:16;;;;;;;10.35;5.25;;;15.80;99.90;;;;;;5072693;28;20025;-74
2022/10/22 08:19:42;;;;;;;13.80;5.13;;;15.90;99.90;;;;;;5073351;28;20090;-74
2022/10/22 08:22:07;;;;;;;11.73;4.85;;;15.90;99.90;;;;;;5073054;28;20090;-74
2022/10/22 08:24:33;;;;;;;17.13;4.68;;;16.00;99.90;;;;;;5071661;28;20055;-75
2022/10/22 08:26:59;;;;;;;7.03;4.07;;;16.10;99.90;;;;;;5073030;28;20054;-78
2022/10/22 08:29:25;;;;;;;12.50;4.43;;;16.10;99.90;;;;;;5073373;28;20025;-80
2022/10/22 08:31:52;;;;;;;6.82;4.43;;;16.30;99.90;;;;;;5073075;28;20098;-81
2022/10/22 08:34:18;;;;;;;8.70;4.53;;;16.40;99.90;;;;;;5073204;28;20524;-79
2022/10/22 08:36:44;;;;;;;9.15;3.97;;;16.50;99.90;;;;;;5072392;28;20462;-78
2022/10/22 08:39:10;;;;;;;6.50;3.80;;;16.60;99.90;;;;;;5072233;28;20044;-75
2022/10/22 08:42:01;;;;;;;12.20;3.95;;;16.70;99.90;;;;;;5071894;28;20032;-76
2022/10/22 08:44:47;;;;;;;9.43;4.00;;;16.80;99.90;;;;;;5061263;28;20304;-77
2022/10/22 08:47:50;;;;;;;8.40;3.70;;;16.90;99.90;;;;;;5072830;28;20044;-78
2022/10/22 08:50:35;;;;;;;9.23;3.42;;;17.00;99.90;;;;;;5063959;28;20044;-78
2022/10/22 08:53:15;;;;;;;7.15;4.03;;;17.00;99.90;;;;;;5072357;28;20036;-80
2022/10/22 08:55:41;;;;;;;11.90;3.65;;;17.10;99.90;;;;;;5071272;28;20044;-76
2022/10/22 08:58:16;;;;;;;8.35;3.22;;;17.20;99.90;;;;;;5071022;28;20040;-77
2022/10/22 09:01:04;;;;;;;6.18;3.15;;;17.20;99.90;;;;;;5071917;28;20125;-76
2022/10/22 09:03:35;;;;;;;9.43;3.53;;;17.30;99.90;;;;;;5072027;28;20043;-78
2022/10/22 09:06:25;;;;;;;7.95;3.33;;;17.30;99.90;;;;;;5071937;28;20024;-77
2022/10/22 09:08:52;;;;;;;7.30;3.05;;;17.40;99.90;;;;;;5072394;28;20035;-83
2022/10/22 09:11:33;;;;;;;4.75;3.17;;;17.50;99.90;;;;;;5072527;28;20395;-82
2022/10/22 09:13:59;;;;;;;6.85;2.83;;;17.80;99.90;;;;;;5071753;28;20057;-82
2022/10/22 09:16:41;;;;;;;4.82;2.72;;;18.60;99.90;;;;;;5071641;28;20085;-81
2022/10/22 09:19:23;;;;;;;4.55;2.47;;;19.40;99.90;;;;;;5072009;28;20043;-82
2022/10/22 09:22:09;;;;;;;7.38;2.65;;;20.40;99.90;;;;;;5071822;28;20120;-82
2022/10/22 09:24:42;;;;;;;4.72;2.40;;;21.50;99.90;;;;;;5070512;28;20102;-83
2022/10/22 09:27:22;;;;;;;6.80;2.45;;;22.50;99.90;;;;;;5070557;28;20052;-82
2022/10/22 09:29:48;;;;;;;5.55;2.40;;;22.10;99.90;;;;;;5070525;28;20116;-82
2022/10/22 09:32:15;;;;;;;4.25;1.95;;;21.40;98.40;;;;;;5070835;28;20119;-81
2022/10/22 09:34:44;;;;;;;6.47;2.03;;;21.70;99.90;;;;;;5071445;28;20066;-82
2022/10/22 09:37:10;;;;;;;7.00;2.42;;;23.00;99.90;;;;;;5070494;28;20028;-83
2022/10/22 09:39:50;;;;;;;5.53;1.83;;;23.80;98.60;;;;;;5071226;28;20259;-81
2022/10/22 09:42:18;;;;;;;6.45;1.98;;;24.70;98.10;;;;;;5071457;28;20115;-82
2022/10/22 09:44:54;;;;;;;4.22;2.03;;;25.00;96.30;;;;;;5071206;28;20040;-82
2022/10/22 09:47:33;;;;;;;5.97;1.88;;;25.70;96.50;;;;;;5071572;28;20180;-82
2022/10/22 09:50:26;;;;;;;4.72;1.75;;;26.40;95.60;;;;;;5070471;28;20029;-84
2022/10/22 09:52:59;;;;;;;4.82;1.95;;;26.50;93.90;;;;;;5071411;28;20462;-80
2022/10/22 09:55:25;;;;;;;6.75;2.00;;;27.10;93.90;;;;;;5071258;28;20037;-83
2022/10/22 09:57:57;;;;;;;5.75;1.70;;;27.00;92.80;;;;;;5071376;28;20043;-82
2022/10/22 10:00:23;;;;;;;7.70;1.95;;;27.40;92.10;;;;;;5070497;28;20375;-81
2022/10/22 10:02:55;;;;;;;5.18;2.03;;;27.50;93.90;;;;;;5070375;28;20039;-81
2022/10/22 10:05:27;;;;;;;5.10;1.80;;;27.30;91.30;;;;;;5071444;28;20034;-81
2022/10/22 10:07:53;;;;;;;4.50;1.85;;;26.80;91.40;;;;;;5070976;28;20048;-82
2022/10/22 10:10:30;;;;;;;4.80;1.30;;;26.70;92.20;;;;;;5069515;28;20387;-81
2022/10/22 10:13:29;;;;;;;7.20;2.03;;;26.60;91.10;;;;;;5070753;28;20124;-82
2022/10/22 10:16:14;;;;;;;4.80;1.45;;;26.90;92.20;;;;;;5069690;28;20033;-82
2022/10/22 10:18:59;;;;;;;3.10;1.63;;;27.20;90.30;;;;;;5070784;28;20036;-83
2022/10/22 10:21:31;;;;;;;6.70;1.58;;;27.80;91.10;;;;;;5070518;28;20032;-82
2022/10/22 10:24:15;;;;;;;7.43;1.80;;;28.30;91.10;;;;;;5069467;28;20048;-82
2022/10/22 10:27:21;;;;;;;3.33;1.55;;;28.30;88.60;;;;;;5069696;28;20121;-81
2022/10/22 10:29:55;;;;;;;10.00;2.17;;;28.00;86.60;;;;;;5069807;28;20035;-84
2022/10/22 10:32:24;;;;;;;6.88;2.08;;;28.10;86.10;;;;;;5071369;28;20436;-83
2022/10/22 10:35:02;;;;;;;3.92;1.85;;;28.20;87.80;;;;;;5071011;28;20102;-83
2022/10/22 10:37:48;;;;;;;;;;;29.00;84.50;;;;;;5070047;28;20112;-82
2022/10/22 10:40:28;;;;;;;7.60;1.67;;;29.70;83.90;;;;;;5070187;28;20411;-82
2022/10/22 10:43:05;;;;;;;5.35;1.60;;;30.00;82.40;;;;;;5070747;28;20123;-80
2022/10/22 10:45:36;;;;;;;4.57;1.70;;;30.00;81.40;;;;;;5070727;28;20536;-82
2022/10/22 10:48:17;;;;;;;4.40;1.70;;;29.20;78.50;;;;;;5070697;28;20037;-81
2022/10/22 10:50:52;;;;;;;6.95;2.10;;;27.20;82.80;;;;;;5069597;28;20036;-83
2022/10/22 10:53:37;;;;;;;5.35;2.13;;;26.30;85.60;;;;;;5071037;28;20100;-82
2022/10/22 10:56:18;;;;;;;8.55;1.80;;;25.80;87.50;;;;;;5069688;28;20032;-82
2022/10/22 10:58:52;;;;;;;5.50;1.98;;;25.20;89.90;;;;;;5070584;28;20109;-80
2022/10/22 11:01:28;;;;;;;4.25;2.05;;;25.30;90.20;;;;;;5071288;28;20028;-81
2022/10/22 11:04:17;;;;;;;4.57;2.00;;;24.90;90.60;;;;;;5073616;28;20072;-82
2022/10/22 11:06:44;;;;;;;4.93;2.03;;;24.60;91.30;;;;;;5070675;28;20025;-82
2022/10/22 11:09:35;;;;;;;8.25;2.10;;;24.30;91.70;;;;;;5074803;28;20025;-82
2022/10/22 11:12:12;;;;;;;11.73;2.58;;;23.70;92.10;;;;;;5074240;28;20081;-81
2022/10/22 11:14:55;;;;;;;7.27;2.00;;;23.30;92.80;;;;;;5074262;28;20024;-80
2022/10/22 11:17:25;;;;;;;5.80;2.17;;;23.00;93.30;;;;;;5074608;28;20381;-83
2022/10/22 11:20:01;;;;;;;6.90;2.38;;;22.80;93.70;;;;;;5074216;28;20278;-82
2022/10/22 11:22:32;;;;;;;5.68;2.08;;;22.90;93.80;;;;;;5074007;28;20067;-76
2022/10/22 11:25:14;;;;;;;8.50;2.38;;;22.50;94.30;;;;;;5074124;28;20094;-79
2022/10/22 11:28:04;;;;;;;9.68;2.13;;;22.40;94.40;;;;;;5074083;28;20115;-77
2022/10/22 11:30:35;;;;;;;7.93;2.40;;;22.40;94.50;;;;;;5072814;28;20062;-77
2022/10/22 11:33:09;;;;;;;34.97;8.05;;;22.40;94.50;;;;;;5072700;28;20089;-80
2022/10/22 11:35:43;;;;;;;4.88;2.33;;;22.30;94.80;;;;;;5072650;28;20033;-82
2022/10/22 11:38:21;;;;;;;8.38;1.90;;;22.30;95.00;;;;;;5073970;28;20024;-75
2022/10/22 11:41:04;;;;;;;6.20;1.95;;;22.10;95.00;;;;;;5074068;28;20549;-72
2022/10/22 11:43:34;;;;;;;3.47;2.03;;;22.10;95.30;;;;;;5073519;28;20043;-75
2022/10/22 11:46:14;;;;;;;6.82;2.05;;;22.40;95.30;;;;;;5073259;28;20028;-74
2022/10/22 11:48:40;;;;;;;5.47;2.10;;;22.60;94.50;;;;;;5073311;28;20028;-73
2022/10/22 11:51:36;;;;;;;8.18;2.25;;;22.60;94.10;;;;;;5072114;28;20040;-76
2022/10/22 11:54:36;;;;;;;7.80;1.63;;;22.60;94.00;;;;;;5073462;28;20025;-75
2022/10/22 11:57:13;;;;;;;4.70;1.33;;;22.40;94.00;;;;;;5073408;28;20357;-76
2022/10/22 11:59:58;;;;;;;6.72;1.58;;;22.00;94.00;;;;;;5072384;28;20059;-80
2022/10/22 12:02:24;;;;;;;11.90;1.45;;;21.70;94.10;;;;;;5073893;28;20029;-79
2022/10/22 12:04:50;;;;;;;7.25;1.50;;;21.30;94.40;;;;;;5073243;28;20111;-79
2022/10/22 12:07:32;;;;;;;7.13;1.67;;;21.30;94.80;;;;;;5072960;28;20049;-78
2022/10/22 12:09:58;;;;;;;13.63;2.00;;;21.30;94.60;;;;;;5073303;28;20452;-79
2022/10/22 12:12:26;;;;;;;6.93;1.50;;;21.30;94.60;;;;;;5070725;28;20584;-77
2022/10/22 12:14:56;;;;;;;;;;;21.30;94.80;;;;;;5072705;28;20036;-78
2022/10/22 12:17:22;;;;;;;10.25;2.00;;;21.60;94.50;;;;;;5074050;28;19982;-79
2022/10/22 12:20:10;;;;;;;6.68;1.65;;;21.60;94.10;;;;;;5073800;28;20474;-76
2022/10/22 12:22:39;;;;;;;9.57;1.67;;;21.60;94.30;;;;;;5074385;28;20408;-79
2022/10/22 12:25:30;;;;;;;8.57;1.63;;;21.40;94.30;;;;;;5073845;28;20068;-79
2022/10/22 12:27:58;;;;;;;10.98;2.47;;;21.40;94.40;;;;;;5073193;28;20028;-77
2022/10/22 12:30:29;;;;;;;5.13;1.42;;;21.70;94.20;;;;;;5072983;28;20086;-78
2022/10/22 12:32:59;;;;;;;8.95;2.22;;;21.50;94.20;;;;;;5072895;28;20358;-78
2022/10/22 12:35:27;;;;;;;12.35;2.00;;;21.50;94.30;;;;;;5073337;28;20381;-77
2022/10/22 12:37:56;;;;;;;10.43;2.28;;;21.30;94.00;;;;;;5073244;28;20109;-78
2022/10/22 12:40:26;;;;;;;7.95;2.17;;;21.30;94.40;;;;;;5073193;28;20040;-78
2022/10/22 12:42:58;;;;;;;8.57;1.60;;;21.20;94.60;;;;;;5072666;28;20036;-78
2022/10/22 12:45:29;;;;;;;10.73;1.80;;;21.00;94.70;;;;;;5072950;28;20402;-77
2022/10/22 12:48:00;;;;;;;8.23;1.60;;;21.00;94.90;;;;;;5072785;28;20491;-78
2022/10/22 12:50:53;;;;;;;9.55;2.30;;;21.10;94.90;;;;;;5072216;28;20116;-79
2022/10/22 12:53:22;;;;;;;7.00;1.67;;;21.10;94.80;;;;;;5072433;28;20120;-77
2022/10/22 12:55:51;;;;;;;10.95;2.10;;;21.00;94.70;;;;;;5072645;28;20623;-77
2022/10/22 12:58:20;;;;;;;6.80;2.03;;;21.20;95.10;;;;;;5072260;28;20040;-79
2022/10/22 13:00:46;;;;;;;7.50;2.85;;;21.30;95.00;;;;;;5072187;28;20032;-79
2022/10/22 13:03:34;;;;;;;7.13;1.80;;;21.20;94.70;;;;;;5071392;28;20078;-79
2022/10/22 13:06:11;;;;;;;;;;;21.20;95.20;;;;;;5072934;28;20063;-78